sensor_id;sensor_type;location;lat;lon;timestamp;pressure;altitude;pressure_sealevel;temperature;humidity
12963;BME280;6546;49.882;8.666;2022-12-31T00:01:04;99301.91;;;12.64;100.00
12963;BME280;6546;49.882;8.666;2022-12-31T00:03:31;99294.09;;;12.68;100.00
12963;BME280;6546;49.882;8.666;2022-12-31T00:05:59;99301.78;;;12.73;100.00
12963;BME280;6546;49.882;8.666;2022-12-31T00:08:26;99316.44;;;12.77;100.00
12963;BME280;6546;49.882;8.666;2022-12-31T00:10:52;99313.81;;;12.79;100.00
12963;BME280;6546;49.882;8.666;2022-12-31T00:13:19;99317.28;;;12.76;100.00
12963;BME280;6546;49.882;8.666;2022-12-31T00:15:45;99319.03;;;12.77;100.00
12963;BME280;6546;49.882;8.666;2022-12-31T00:18:12;99322.44;;;12.79;100.00
12963;BME280;6546;49.882;8.666;2022-12-31T00:20:39;99325.03;;;12.79;100.00
12963;BME280;6546;49.882;8.666;2022-12-31T00:23:08;99323.16;;;12.89;100.00
12963;BME280;6546;49.882;8.666;2022-12-31T00:25:35;99320.72;;;12.81;100.00
12963;BME280;6546;49.882;8.666;2022-12-31T00:28:02;99317.13;;;12.87;100.00
12963;BME280;6546;49.882;8.666;2022-12-31T00:30:29;99315.44;;;12.84;100.00
12963;BME280;6546;49.882;8.666;2022-12-31T00:32:56;99310.13;;;12.92;100.00
12963;BME280;6546;49.882;8.666;2022-12-31T00:35:22;99330.09;;;12.90;100.00
12963;BME280;6546;49.882;8.666;2022-12-31T00:37:50;99321.38;;;12.92;100.00
12963;BME280;6546;49.882;8.666;2022-12-31T00:40:18;99318.72;;;12.95;100.00
12963;BME280;6546;49.882;8.666;2022-12-31T00:42:45;99323.88;;;12.97;100.00
12963;BME280;6546;49.882;8.666;2022-12-31T00:45:11;99331.69;;;12.97;100.00
12963;BME280;6546;49.882;8.666;2022-12-31T00:47:38;99326.44;;;13.00;100.00
12963;BME280;6546;49.882;8.666;2022-12-31T00:50:05;99336.78;;;13.03;100.00
12963;BME280;6546;49.882;8.666;2022-12-31T00:52:32;99338.50;;;13.04;100.00
12963;BME280;6546;49.882;8.666;2022-12-31T00:54:58;99339.34;;;13.05;100.00
12963;BME280;6546;49.882;8.666;2022-12-31T00:57:26;99338.44;;;13.06;100.00
12963;BME280;6546;49.882;8.666;2022-12-31T00:59:53;99348.75;;;13.12;100.00
12963;BME280;6546;49.882;8.666;2022-12-31T01:02:21;99351.41;;;13.09;100.00
12963;BME280;6546;49.882;8.666;2022-12-31T01:04:48;99356.56;;;13.10;100.00
12963;BME280;6546;49.882;8.666;2022-12-31T01:07:14;99356.63;;;13.06;100.00
12963;BME280;6546;49.882;8.666;2022-12-31T01:09:41;99365.22;;;13.11;100.00
12963;BME280;6546;49.882;8.666;2022-12-31T01:12:07;99375.66;;;13.08;100.00
12963;BME280;6546;49.882;8.666;2022-12-31T01:14:35;99365.19;;;13.12;100.00
12963;BME280;6546;49.882;8.666;2022-12-31T01:17:02;99374.81;;;13.07;100.00
12963;BME280;6546;49.882;8.666;2022-12-31T01:19:28;99369.53;;;13.12;100.00
12963;BME280;6546;49.882;8.666;2022-12-31T01:21:55;99375.66;;;13.08;100.00
12963;BME280;6546;49.882;8.666;2022-12-31T01:24:22;99386.00;;;13.09;100.00
12963;BME280;6546;49.882;8.666;2022-12-31T01:26:49;99379.16;;;13.07;100.00
12963;BME280;6546;49.882;8.666;2022-12-31T01:29:16;99385.13;;;13.10;100.00
12963;BME280;6546;49.882;8.666;2022-12-31T01:31:44;99398.97;;;13.12;100.00
12963;BME280;6546;49.882;8.666;2022-12-31T01:34:11;99399.84;;;13.10;100.00
12963;BME280;6546;49.882;8.666;2022-12-31T01:36:40;99412.00;;;13.08;100.00
12963;BME280;6546;49.882;8.666;2022-12-31T01:39:07;99400.66;;;13.15;100.00
12963;BME280;6546;49.882;8.666;2022-12-31T01:41:36;99414.50;;;13.14;100.00
12963;BME280;6546;49.882;8.666;2022-12-31T01:47:08;99415.34;;;13.16;100.00
12963;BME280;6546;49.882;8.666;2022-12-31T01:49:41;99412.75;;;13.16;100.00
12963;BME280;6546;49.882;8.666;2022-12-31T01:52:12;99423.16;;;13.14;100.00
12963;BME280;6546;49.882;8.666;2022-12-31T01:54:43;99421.38;;;13.18;100.00
12963;BME280;6546;49.882;8.666;2022-12-31T01:57:16;99417.88;;;13.20;100.00
12963;BME280;6546;49.882;8.666;2022-12-31T01:59:45;99423.97;;;13.18;100.00
12963;BME280;6546;49.882;8.666;2022-12-31T02:02:14;99417.84;;;13.22;100.00
12963;BME280;6546;49.882;8.666;2022-12-31T02:04:41;99416.97;;;13.23;100.00
12963;BME280;6546;49.882;8.666;2022-12-31T02:07:08;99421.25;;;13.29;100.00
12963;BME280;6546;49.882;8.666;2022-12-31T02:09:37;99403.13;;;13.24;100.00
12963;BME280;6546;49.882;8.666;2022-12-31T02:12:05;99412.69;;;13.20;100.00
12963;BME280;6546;49.882;8.666;2022-12-31T02:14:35;99401.53;;;13.14;100.00
12963;BME280;6546;49.882;8.666;2022-12-31T02:17:08;99404.03;;;13.18;100.00
12963;BME280;6546;49.882;8.666;2022-12-31T02:20:16;99405.81;;;13.16;100.00
12963;BME280;6546;49.882;8.666;2022-12-31T02:22:58;99397.25;;;13.11;100.00
12963;BME280;6546;49.882;8.666;2022-12-31T02:25:42;99397.22;;;13.13;100.00
12963;BME280;6546;49.882;8.666;2022-12-31T02:28:25;99392.06;;;13.11;100.00
12963;BME280;6546;49.882;8.666;2022-12-31T02:31:06;99405.03;;;13.10;100.00
12963;BME280;6546;49.882;8.666;2022-12-31T02:33:38;99400.69;;;13.10;100.00
12963;BME280;6546;49.882;8.666;2022-12-31T02:36:11;99404.22;;;13.08;100.00
12963;BME280;6546;49.882;8.666;2022-12-31T02:38:42;99405.19;;;13.01;100.00
12963;BME280;6546;49.882;8.666;2022-12-31T02:41:12;99405.13;;;13.07;100.00
12963;BME280;6546;49.882;8.666;2022-12-31T02:43:59;99393.06;;;13.03;100.00
12963;BME280;6546;49.882;8.666;2022-12-31T02:46:30;99395.63;;;13.04;100.00
12963;BME280;6546;49.882;8.666;2022-12-31T02:49:03;99386.84;;;13.11;100.00
12963;BME280;6546;49.882;8.666;2022-12-31T02:51:37;99396.31;;;13.14;100.00
12963;BME280;6546;49.882;8.666;2022-12-31T02:54:16;99408.44;;;13.15;100.00
12963;BME280;6546;49.882;8.666;2022-12-31T02:56:52;99406.63;;;13.20;100.00
12963;BME280;6546;49.882;8.666;2022-12-31T02:59:27;99414.38;;;13.25;100.00
12963;BME280;6546;49.882;8.666;2022-12-31T03:02:16;99415.22;;;13.25;100.00
12963;BME280;6546;49.882;8.666;2022-12-31T03:04:47;99413.44;;;13.29;100.00
12963;BME280;6546;49.882;8.666;2022-12-31T03:07:18;99408.19;;;13.33;100.00
12963;BME280;6546;49.882;8.666;2022-12-31T03:09:46;99412.25;;;13.48;100.00
12963;BME280;6546;49.882;8.666;2022-12-31T03:12:13;99420.00;;;13.53;100.00
12963;BME280;6546;49.882;8.666;2022-12-31T03:14:57;99410.53;;;13.47;100.00
12963;BME280;6546;49.882;8.666;2022-12-31T03:17:25;99397.41;;;13.55;100.00
12963;BME280;6546;49.882;8.666;2022-12-31T03:19:52;99407.63;;;13.64;100.00
12963;BME280;6546;49.882;8.666;2022-12-31T03:22:39;99409.25;;;13.71;100.00
12963;BME280;6546;49.882;8.666;2022-12-31T03:25:09;99400.38;;;13.81;100.00
12963;BME280;6546;49.882;8.666;2022-12-31T03:27:53;99416.00;;;13.81;100.00
12963;BME280;6546;49.882;8.666;2022-12-31T03:30:21;99406.38;;;13.85;100.00
12963;BME280;6546;49.882;8.666;2022-12-31T03:32:49;99399.25;;;13.96;100.00
12963;BME280;6546;49.882;8.666;2022-12-31T03:35:18;99413.03;;;14.01;100.00
12963;BME280;6546;49.882;8.666;2022-12-31T03:37:46;99420.78;;;14.03;100.00
12963;BME280;6546;49.882;8.666;2022-12-31T03:40:14;99406.97;;;14.01;100.00
12963;BME280;6546;49.882;8.666;2022-12-31T03:42:41;99418.19;;;14.03;100.00
12963;BME280;6546;49.882;8.666;2022-12-31T03:45:09;99408.72;;;13.98;100.00
12963;BME280;6546;49.882;8.666;2022-12-31T03:47:36;99416.53;;;13.98;100.00
12963;BME280;6546;49.882;8.666;2022-12-31T03:50:06;99407.88;;;13.98;100.00
12963;BME280;6546;49.882;8.666;2022-12-31T03:52:33;99403.50;;;14.00;100.00
12963;BME280;6546;49.882;8.666;2022-12-31T03:55:00;99410.38;;;14.03;100.00
12963;BME280;6546;49.882;8.666;2022-12-31T03:57:27;99400.91;;;13.98;100.00
12963;BME280;6546;49.882;8.666;2022-12-31T03:59:54;99393.06;;;14.02;100.00
12963;BME280;6546;49.882;8.666;2022-12-31T04:02:20;99415.47;;;14.09;100.00
12963;BME280;6546;49.882;8.666;2022-12-31T04:04:47;99424.94;;;14.13;100.00
12963;BME280;6546;49.882;8.666;2022-12-31T04:07:15;99419.59;;;14.19;100.00
12963;BME280;6546;49.882;8.666;2022-12-31T04:09:42;99423.06;;;14.19;100.00
12963;BME280;6546;49.882;8.666;2022-12-31T04:12:08;99428.34;;;14.16;100.00
12963;BME280;6546;49.882;8.666;2022-12-31T04:14:35;99425.56;;;14.24;100.00
12963;BME280;6546;49.882;8.666;2022-12-31T04:17:01;99438.50;;;14.29;100.00
12963;BME280;6546;49.882;8.666;2022-12-31T04:19:28;99438.38;;;14.35;100.00
12963;BME280;6546;49.882;8.666;2022-12-31T04:21:54;99448.69;;;14.39;100.00
12963;BME280;6546;49.882;8.666;2022-12-31T04:24:22;99454.84;;;14.35;100.00
12963;BME280;6546;49.882;8.666;2022-12-31T04:26:49;99455.59;;;14.40;100.00
12963;BME280;6546;49.882;8.666;2022-12-31T04:29:16;99459.03;;;14.42;100.00
12963;BME280;6546;49.882;8.666;2022-12-31T04:31:42;99451.19;;;14.45;100.00
12963;BME280;6546;49.882;8.666;2022-12-31T04:34:09;99442.38;;;14.53;100.00
12963;BME280;6546;49.882;8.666;2022-12-31T04:36:35;99447.56;;;14.53;100.00
12963;BME280;6546;49.882;8.666;2022-12-31T04:39:02;99447.66;;;14.50;100.00
12963;BME280;6546;49.882;8.666;2022-12-31T04:41:30;99444.16;;;14.51;100.00
12963;BME280;6546;49.882;8.666;2022-12-31T04:43:57;99451.97;;;14.49;100.00
12963;BME280;6546;49.882;8.666;2022-12-31T04:46:25;99447.69;;;14.46;100.00
12963;BME280;6546;49.882;8.666;2022-12-31T04:48:52;99456.38;;;14.45;100.00
12963;BME280;6546;49.882;8.666;2022-12-31T04:51:20;99454.56;;;14.51;100.00
12963;BME280;6546;49.882;8.666;2022-12-31T04:53:47;99457.13;;;14.52;100.00
12963;BME280;6546;49.882;8.666;2022-12-31T04:56:14;99457.03;;;14.58;100.00
12963;BME280;6546;49.882;8.666;2022-12-31T04:58:42;99453.38;;;14.67;100.00
12963;BME280;6546;49.882;8.666;2022-12-31T05:01:10;99442.91;;;14.68;100.00
12963;BME280;6546;49.882;8.666;2022-12-31T05:03:36;99454.22;;;14.66;100.00
12963;BME280;6546;49.882;8.666;2022-12-31T05:06:04;99439.25;;;14.77;100.00
12963;BME280;6546;49.882;8.666;2022-12-31T05:08:32;99446.19;;;14.77;100.00
12963;BME280;6546;49.882;8.666;2022-12-31T05:10:59;99454.75;;;14.82;100.00
12963;BME280;6546;49.882;8.666;2022-12-31T05:13:26;99452.00;;;14.89;100.00
12963;BME280;6546;49.882;8.666;2022-12-31T05:15:54;99464.06;;;14.93;100.00
12963;BME280;6546;49.882;8.666;2022-12-31T05:18:21;99464.19;;;14.87;100.00
12963;BME280;6546;49.882;8.666;2022-12-31T05:20:48;99462.25;;;14.95;100.00
12963;BME280;6546;49.882;8.666;2022-12-31T05:23:15;99455.34;;;14.94;100.00
12963;BME280;6546;49.882;8.666;2022-12-31T05:25:44;99472.78;;;14.92;100.00
12963;BME280;6546;49.882;8.666;2022-12-31T05:28:11;99476.13;;;14.97;100.00
12963;BME280;6546;49.882;8.666;2022-12-31T05:30:38;99474.34;;;15.00;100.00
12963;BME280;6546;49.882;8.666;2022-12-31T05:33:06;99489.91;;;15.03;100.00
12963;BME280;6546;49.882;8.666;2022-12-31T05:35:32;99488.03;;;15.08;100.00
12963;BME280;6546;49.882;8.666;2022-12-31T05:37:59;99480.44;;;15.00;100.00
12963;BME280;6546;49.882;8.666;2022-12-31T05:40:26;99481.19;;;15.04;100.00
12963;BME280;6546;49.882;8.666;2022-12-31T05:42:53;99484.47;;;15.12;100.00
12963;BME280;6546;49.882;8.666;2022-12-31T05:45:20;99503.50;;;15.17;100.00
12963;BME280;6546;49.882;8.666;2022-12-31T05:47:58;99481.75;;;15.18;100.00
12963;BME280;6546;49.882;8.666;2022-12-31T05:50:26;99485.34;;;15.12;100.00
12963;BME280;6546;49.882;8.666;2022-12-31T05:52:53;99489.56;;;15.18;100.00
12963;BME280;6546;49.882;8.666;2022-12-31T05:55:19;99468.78;;;15.15;100.00
12963;BME280;6546;49.882;8.666;2022-12-31T05:57:46;99480.91;;;15.16;100.00
12963;BME280;6546;49.882;8.666;2022-12-31T06:00:13;99474.84;;;15.15;100.00
12963;BME280;6546;49.882;8.666;2022-12-31T06:02:40;99480.06;;;15.17;100.00
12963;BME280;6546;49.882;8.666;2022-12-31T06:05:07;99481.66;;;15.22;100.00
12963;BME280;6546;49.882;8.666;2022-12-31T06:07:35;99478.13;;;15.23;100.00
12963;BME280;6546;49.882;8.666;2022-12-31T06:10:02;99463.56;;;15.15;100.00
12963;BME280;6546;49.882;8.666;2022-12-31T06:12:29;99475.59;;;15.22;100.00
12963;BME280;6546;49.882;8.666;2022-12-31T06:14:55;99488.63;;;15.20;100.00
12963;BME280;6546;49.882;8.666;2022-12-31T06:17:22;99477.28;;;15.23;100.00
12963;BME280;6546;49.882;8.666;2022-12-31T06:19:48;99492.00;;;15.26;100.00
12963;BME280;6546;49.882;8.666;2022-12-31T06:22:15;99492.78;;;15.29;100.00
12963;BME280;6546;49.882;8.666;2022-12-31T06:24:43;99501.47;;;15.28;100.00
12963;BME280;6546;49.882;8.666;2022-12-31T06:27:10;99496.34;;;15.25;100.00
12963;BME280;6546;49.882;8.666;2022-12-31T06:29:36;99506.75;;;15.25;100.00
12963;BME280;6546;49.882;8.666;2022-12-31T06:32:03;99505.06;;;15.24;100.00
12963;BME280;6546;49.882;8.666;2022-12-31T06:34:30;99517.13;;;15.28;100.00
12963;BME280;6546;49.882;8.666;2022-12-31T06:36:57;99520.56;;;15.30;100.00
12963;BME280;6546;49.882;8.666;2022-12-31T06:39:24;99529.34;;;15.26;100.00
12963;BME280;6546;49.882;8.666;2022-12-31T06:41:51;99541.53;;;15.26;100.00
12963;BME280;6546;49.882;8.666;2022-12-31T06:44:18;99539.78;;;15.26;100.00
12963;BME280;6546;49.882;8.666;2022-12-31T06:46:46;99542.97;;;15.37;100.00
12963;BME280;6546;49.882;8.666;2022-12-31T06:49:13;99548.19;;;15.37;100.00
12963;BME280;6546;49.882;8.666;2022-12-31T06:51:39;99545.56;;;15.37;100.00
12963;BME280;6546;49.882;8.666;2022-12-31T06:54:06;99543.03;;;15.36;100.00
12963;BME280;6546;49.882;8.666;2022-12-31T06:56:34;99552.44;;;15.41;100.00
12963;BME280;6546;49.882;8.666;2022-12-31T06:59:03;99549.94;;;15.38;100.00
12963;BME280;6546;49.882;8.666;2022-12-31T07:01:42;99570.84;;;15.35;100.00
12963;BME280;6546;49.882;8.666;2022-12-31T07:04:29;99564.69;;;15.38;100.00
12963;BME280;6546;49.882;8.666;2022-12-31T07:07:06;99557.59;;;15.44;100.00
12963;BME280;6546;49.882;8.666;2022-12-31T07:09:39;99552.41;;;15.43;100.00
12963;BME280;6546;49.882;8.666;2022-12-31T07:12:17;99559.44;;;15.39;100.00
12963;BME280;6546;49.882;8.666;2022-12-31T07:14:52;99554.25;;;15.38;100.00
12963;BME280;6546;49.882;8.666;2022-12-31T07:17:26;99552.41;;;15.43;100.00
12963;BME280;6546;49.882;8.666;2022-12-31T07:20:00;99556.84;;;15.39;100.00
12963;BME280;6546;49.882;8.666;2022-12-31T07:22:28;99568.34;;;15.31;100.00
12963;BME280;6546;49.882;8.666;2022-12-31T07:24:55;99563.97;;;15.31;100.00
12963;BME280;6546;49.882;8.666;2022-12-31T07:27:48;99565.84;;;15.26;100.00
12963;BME280;6546;49.882;8.666;2022-12-31T07:30:21;99560.63;;;15.25;100.00
12963;BME280;6546;49.882;8.666;2022-12-31T07:33:11;99555.53;;;15.20;100.00
12963;BME280;6546;49.882;8.666;2022-12-31T07:35:48;99578.72;;;15.32;100.00
12963;BME280;6546;49.882;8.666;2022-12-31T07:38:23;99572.00;;;15.22;100.00
12963;BME280;6546;49.882;8.666;2022-12-31T07:41:01;99579.66;;;15.28;100.00
12963;BME280;6546;49.882;8.666;2022-12-31T07:43:34;99594.50;;;15.26;100.00
12963;BME280;6546;49.882;8.666;2022-12-31T07:46:06;99589.25;;;15.28;100.00
12963;BME280;6546;49.882;8.666;2022-12-31T07:48:37;99601.53;;;15.21;100.00
12963;BME280;6546;49.882;8.666;2022-12-31T07:51:04;99600.66;;;15.22;100.00
12963;BME280;6546;49.882;8.666;2022-12-31T07:53:31;99604.09;;;15.24;100.00
12963;BME280;6546;49.882;8.666;2022-12-31T07:55:59;99604.03;;;15.27;100.00
12963;BME280;6546;49.882;8.666;2022-12-31T07:58:33;99593.47;;;15.33;100.00
12963;BME280;6546;49.882;8.666;2022-12-31T08:01:02;99608.28;;;15.31;100.00
12963;BME280;6546;49.882;8.666;2022-12-31T08:03:42;99605.78;;;15.25;100.00
12963;BME280;6546;49.882;8.666;2022-12-31T08:06:17;99607.63;;;15.21;100.00
12963;BME280;6546;49.882;8.666;2022-12-31T08:08:52;99609.19;;;15.30;100.00
12963;BME280;6546;49.882;8.666;2022-12-31T08:11:28;99610.84;;;15.34;100.00
12963;BME280;6546;49.882;8.666;2022-12-31T08:13:59;99626.53;;;15.31;100.00
12963;BME280;6546;49.882;8.666;2022-12-31T08:16:27;99638.88;;;15.23;100.00
12963;BME280;6546;49.882;8.666;2022-12-31T08:18:56;99623.16;;;15.26;100.00
12963;BME280;6546;49.882;8.666;2022-12-31T08:21:33;99639.66;;;15.27;100.00
12963;BME280;6546;49.882;8.666;2022-12-31T08:24:11;99654.34;;;15.29;100.00
12963;BME280;6546;49.882;8.666;2022-12-31T08:26:47;99660.47;;;15.30;100.00
12963;BME280;6546;49.882;8.666;2022-12-31T08:29:26;99663.06;;;15.28;100.00
12963;BME280;6546;49.882;8.666;2022-12-31T08:32:00;99664.78;;;15.29;100.00
12963;BME280;6546;49.882;8.666;2022-12-31T08:34:39;99658.72;;;15.30;100.00
12963;BME280;6546;49.882;8.666;2022-12-31T08:37:10;99651.66;;;15.35;100.00
12963;BME280;6546;49.882;8.666;2022-12-31T08:39:47;99672.41;;;15.40;100.00
12963;BME280;6546;49.882;8.666;2022-12-31T08:42:24;99657.81;;;15.31;100.00
12963;BME280;6546;49.882;8.666;2022-12-31T08:44:58;99663.78;;;15.36;100.00
12963;BME280;6546;49.882;8.666;2022-12-31T08:47:36;99671.53;;;15.39;100.00
12963;BME280;6546;49.882;8.666;2022-12-31T08:50:12;99668.78;;;15.47;100.00
12963;BME280;6546;49.882;8.666;2022-12-31T08:52:40;99662.81;;;15.40;100.00
12963;BME280;6546;49.882;8.666;2022-12-31T08:55:12;99671.56;;;15.38;100.00
12963;BME280;6546;49.882;8.666;2022-12-31T08:57:41;99662.88;;;15.37;100.00
12963;BME280;6546;49.882;8.666;2022-12-31T09:00:17;99662.78;;;15.43;100.00
12963;BME280;6546;49.882;8.666;2022-12-31T09:03:08;99663.78;;;15.36;100.00
12963;BME280;6546;49.882;8.666;2022-12-31T09:05:51;99668.84;;;15.44;100.00
12963;BME280;6546;49.882;8.666;2022-12-31T09:08:27;99661.91;;;15.43;100.00
12963;BME280;6546;49.882;8.666;2022-12-31T09:10:58;99669.69;;;15.44;100.00
12963;BME280;6546;49.882;8.666;2022-12-31T09:13:32;99667.03;;;15.46;100.00
12963;BME280;6546;49.882;8.666;2022-12-31T09:16:06;99671.28;;;15.52;100.00
12963;BME280;6546;49.882;8.666;2022-12-31T09:18:39;99673.00;;;15.53;100.00
12963;BME280;6546;49.882;8.666;2022-12-31T09:21:09;99671.34;;;15.48;100.00
12963;BME280;6546;49.882;8.666;2022-12-31T09:23:37;99678.06;;;15.59;100.00
12963;BME280;6546;49.882;8.666;2022-12-31T09:26:12;99681.47;;;15.62;100.00
12963;BME280;6546;49.882;8.666;2022-12-31T09:28:55;99676.34;;;15.58;100.00
12963;BME280;6546;49.882;8.666;2022-12-31T09:31:27;99683.28;;;15.59;100.00
12963;BME280;6546;49.882;8.666;2022-12-31T09:34:02;99674.59;;;15.60;100.00
12963;BME280;6546;49.882;8.666;2022-12-31T09:36:38;99689.22;;;15.68;100.00
12963;BME280;6546;49.882;8.666;2022-12-31T09:39:11;99689.13;;;15.71;100.00
12963;BME280;6546;49.882;8.666;2022-12-31T09:42:01;99687.41;;;15.72;100.00
12963;BME280;6546;49.882;8.666;2022-12-31T09:47:53;99702.00;;;15.79;100.00
12963;BME280;6546;49.882;8.666;2022-12-31T09:50:41;99712.31;;;15.85;100.00
12963;BME280;6546;49.882;8.666;2022-12-31T09:53:25;99700.09;;;15.87;100.00
12963;BME280;6546;49.882;8.666;2022-12-31T09:56:02;99700.09;;;15.87;100.00
12963;BME280;6546;49.882;8.666;2022-12-31T09:58:41;99712.31;;;15.85;100.00
12963;BME280;6546;49.882;8.666;2022-12-31T10:01:28;99692.19;;;15.90;100.00
12963;BME280;6546;49.882;8.666;2022-12-31T10:04:38;99712.13;;;15.94;100.00
12963;BME280;6546;49.882;8.666;2022-12-31T10:07:23;99705.25;;;15.90;100.00
12963;BME280;6546;49.882;8.666;2022-12-31T10:09:59;99702.47;;;15.98;100.00
12963;BME280;6546;49.882;8.666;2022-12-31T10:13:00;99699.88;;;15.96;100.00
12963;BME280;6546;49.882;8.666;2022-12-31T10:15:51;99710.13;;;16.06;100.00
12963;BME280;6546;49.882;8.666;2022-12-31T10:18:31;99708.19;;;16.14;100.00
12963;BME280;6546;49.882;8.666;2022-12-31T10:21:12;99702.94;;;16.15;100.00
12963;BME280;6546;49.882;8.666;2022-12-31T10:26:54;99693.41;;;16.14;100.00
12963;BME280;6546;49.882;8.666;2022-12-31T10:29:33;99699.53;;;16.12;100.00
12963;BME280;6546;49.882;8.666;2022-12-31T10:32:13;99689.88;;;16.15;100.00
12963;BME280;6546;49.882;8.666;2022-12-31T10:34:50;99680.31;;;16.16;100.00
12963;BME280;6546;49.882;8.666;2022-12-31T10:37:20;99680.97;;;16.24;100.00
12963;BME280;6546;49.882;8.666;2022-12-31T10:39:57;99699.97;;;16.31;100.00
12963;BME280;6546;49.882;8.666;2022-12-31T10:42:48;99699.81;;;16.37;100.00
12963;BME280;6546;49.882;8.666;2022-12-31T10:45:35;99698.78;;;16.42;100.00
12963;BME280;6546;49.882;8.666;2022-12-31T10:48:34;99704.91;;;16.41;100.00
12963;BME280;6546;49.882;8.666;2022-12-31T10:54:27;99709.25;;;16.42;100.00
12963;BME280;6546;49.882;8.666;2022-12-31T10:57:23;99697.75;;;16.50;100.00
12963;BME280;6546;49.882;8.666;2022-12-31T11:00:10;99706.31;;;16.55;100.00
12963;BME280;6546;49.882;8.666;2022-12-31T11:03:12;99689.63;;;16.62;100.00
12963;BME280;6546;49.882;8.666;2022-12-31T11:12:01;99694.66;;;16.68;100.00
12963;BME280;6546;49.882;8.666;2022-12-31T11:14:54;99692.97;;;16.67;100.00
12963;BME280;6546;49.882;8.666;2022-12-31T11:17:37;99702.59;;;16.65;100.00
12963;BME280;6546;49.882;8.666;2022-12-31T11:20:28;99703.34;;;16.70;100.00
12963;BME280;6546;49.882;8.666;2022-12-31T11:23:07;99703.06;;;16.81;100.00
12963;BME280;6546;49.882;8.666;2022-12-31T11:25:46;99709.25;;;16.78;100.00
12963;BME280;6546;49.882;8.666;2022-12-31T11:28:48;99703.13;;;16.79;100.00
12963;BME280;6546;49.882;8.666;2022-12-31T11:31:30;99707.56;;;16.76;100.00
12963;BME280;6546;49.882;8.666;2022-12-31T11:34:13;99710.84;;;16.84;100.00
12963;BME280;6546;49.882;8.666;2022-12-31T11:36:55;99694.38;;;16.80;100.00
12963;BME280;6546;49.882;8.666;2022-12-31T11:39:37;99700.56;;;16.78;100.00
12963;BME280;6546;49.882;8.666;2022-12-31T11:42:20;99696.13;;;16.81;100.00
12963;BME280;6546;49.882;8.666;2022-12-31T11:44:54;99702.16;;;16.83;100.00
12963;BME280;6546;49.882;8.666;2022-12-31T11:47:43;99700.44;;;16.82;100.00
12963;BME280;6546;49.882;8.666;2022-12-31T11:50:27;99697.06;;;16.79;100.00
12963;BME280;6546;49.882;8.666;2022-12-31T11:53:04;99699.78;;;16.74;100.00
12963;BME280;6546;49.882;8.666;2022-12-31T11:55:56;99686.84;;;16.68;100.00
12963;BME280;6546;49.882;8.666;2022-12-31T11:58:24;99680.63;;;16.72;100.00
12963;BME280;6546;49.882;8.666;2022-12-31T12:00:55;99673.66;;;16.74;100.00
12963;BME280;6546;49.882;8.666;2022-12-31T12:03:24;99672.63;;;16.81;100.00
12963;BME280;6546;49.882;8.666;2022-12-31T12:05:52;99668.47;;;16.71;100.00
12963;BME280;6546;49.882;8.666;2022-12-31T12:08:21;99671.97;;;16.73;100.00
12963;BME280;6546;49.882;8.666;2022-12-31T12:10:50;99675.38;;;16.75;100.00
12963;BME280;6546;49.882;8.666;2022-12-31T12:13:20;99678.59;;;16.85;100.00
12963;BME280;6546;49.882;8.666;2022-12-31T12:15:49;99666.47;;;16.82;100.00
12963;BME280;6546;49.882;8.666;2022-12-31T12:18:29;99677.78;;;16.83;100.00
12963;BME280;6546;49.882;8.666;2022-12-31T12:21:09;99687.91;;;16.95;100.00
12963;BME280;6546;49.882;8.666;2022-12-31T12:23:37;99687.13;;;16.91;100.00
12963;BME280;6546;49.882;8.666;2022-12-31T12:26:04;99690.47;;;16.96;100.00
12963;BME280;6546;49.882;8.666;2022-12-31T12:28:42;99682.63;;;16.96;100.00
12963;BME280;6546;49.882;8.666;2022-12-31T12:31:17;99674.78;;;16.96;100.00
12963;BME280;6546;49.882;8.666;2022-12-31T12:33:45;99671.53;;;16.88;100.00
12963;BME280;6546;49.882;8.666;2022-12-31T12:36:15;99668.00;;;16.89;100.00
12963;BME280;6546;49.882;8.666;2022-12-31T12:38:43;99655.06;;;16.86;100.00
12963;BME280;6546;49.882;8.666;2022-12-31T12:41:16;99653.22;;;16.90;100.00
12963;BME280;6546;49.882;8.666;2022-12-31T12:43:44;99653.31;;;16.85;100.00
12963;BME280;6546;49.882;8.666;2022-12-31T12:46:18;99662.06;;;16.84;100.00
12963;BME280;6546;49.882;8.666;2022-12-31T12:48:47;99664.97;;;16.74;100.00
12963;BME280;6546;49.882;8.666;2022-12-31T12:51:24;99661.69;;;16.64;100.00
12963;BME280;6546;49.882;8.666;2022-12-31T12:54:01;99666.09;;;16.62;100.00
12963;BME280;6546;49.882;8.666;2022-12-31T12:56:39;99658.22;;;16.63;100.00
12963;BME280;6546;49.882;8.666;2022-12-31T13:02:20;99668.78;;;16.59;100.00
12963;BME280;6546;49.882;8.666;2022-12-31T13:05:02;99662.66;;;16.60;100.00
12963;BME280;6546;49.882;8.666;2022-12-31T13:07:42;99660.88;;;16.62;100.00
12963;BME280;6546;49.882;8.666;2022-12-31T13:10:25;99660.06;;;16.60;100.00
12963;BME280;6546;49.882;8.666;2022-12-31T13:13:01;99668.06;;;16.54;100.00
12963;BME280;6546;49.882;8.666;2022-12-31T13:15:34;99658.75;;;16.43;100.00
12963;BME280;6546;49.882;8.666;2022-12-31T13:18:11;99660.47;;;16.44;100.00
12963;BME280;6546;49.882;8.666;2022-12-31T13:20:47;99657.97;;;16.40;100.00
12963;BME280;6546;49.882;8.666;2022-12-31T13:23:22;99660.53;;;16.41;100.00
12963;BME280;6546;49.882;8.666;2022-12-31T13:26:02;99655.78;;;16.57;100.00
12963;BME280;6546;49.882;8.666;2022-12-31T13:28:33;99666.19;;;16.59;100.00
12963;BME280;6546;49.882;8.666;2022-12-31T13:31:05;99667.16;;;16.55;100.00
12963;BME280;6546;49.882;8.666;2022-12-31T13:33:40;99657.28;;;16.66;100.00
12963;BME280;6546;49.882;8.666;2022-12-31T13:36:12;99657.22;;;16.69;100.00
12963;BME280;6546;49.882;8.666;2022-12-31T13:38:44;99655.38;;;16.74;100.00
12963;BME280;6546;49.882;8.666;2022-12-31T13:41:14;99648.44;;;16.71;100.00
12963;BME280;6546;49.882;8.666;2022-12-31T13:43:49;99637.13;;;16.71;100.00
12963;BME280;6546;49.882;8.666;2022-12-31T13:46:24;99635.50;;;16.67;100.00
12963;BME280;6546;49.882;8.666;2022-12-31T13:48:53;99636.44;;;16.64;100.00
12963;BME280;6546;49.882;8.666;2022-12-31T13:51:27;99635.41;;;16.70;100.00